Bahia De Getares — EA5074 — position and weather

sailwx.info

Track history (hours):
 
Tides and Currents Weather Stations Pressure Air Temp Water Temp Dewpoint Dewpoint Depression Visibility Wind Speed Wind Dir Waves Ship Positions

Bahia De Getares

Last reported at 2018-Aug-18 06:13 UTC. Time now 2018-Aug-19 15:17 UTC.
Position N 36°08' W 005°25'.

Length 23 m.

Type: Ship. MMSI: 225985074.

Date/timePositionNaut miles runAvg speedWind from/ knotsBaromVisibWave heightAir tempDewpointWater temp
2018-Aug-18 06:13N 36°08' W 005°25'1 2.0
2018-Aug-18 05:57N 36°08' W 005°25'1 0.1
2018-Aug-18 00:22N 36°08' W 005°25'2 6.5
2018-Aug-18 00:00N 36°06' W 005°25'1 1.2
2018-Aug-17 23:20N 36°07' W 005°25'  
2018-Aug-13 20:24N 36°09' W 005°26'3 0.2
2018-Aug-13 03:03N 36°10' W 005°23'0 0.1
2018-Aug-13 02:55N 36°10' W 005°23'0 0.0
2018-Aug-13 01:00N 36°10' W 005°23'0 0.1
2018-Aug-12 23:58N 36°10' W 005°23'3 0.1
2018-Aug-12 00:46N 36°09' W 005°26'6 9.7
2018-Aug-12 00:11N 36°04' W 005°24'2 9.2
2018-Aug-11 23:59N 36°02' W 005°23'4 9.1
2018-Aug-11 23:30N 35°58' W 005°21'3 6.7
2018-Aug-11 23:00N 35°55' W 005°20'0 0.1
2018-Aug-11 22:31N 35°55' W 005°20'0 0.1
2018-Aug-11 22:01N 35°55' W 005°20'0 0.1
2018-Aug-11 21:31N 35°55' W 005°20'0 0.1
2018-Aug-11 21:00N 35°55' W 005°21'0 0.1
2018-Aug-11 20:30N 35°55' W 005°21'0 0.7
2018-Aug-11 20:00N 35°55' W 005°21'4 8.3
2018-Aug-11 19:30N 35°59' W 005°22'10 0.4
2018-Aug-10 18:57N 36°09' W 005°26'3 7.1
2018-Aug-10 18:30N 36°06' W 005°25'3 0.2
2018-Aug-10 06:16N 36°09' W 005°26'  
Track history (hours):
 
Tides and Currents Weather Stations Pressure Air Temp Water Temp Dewpoint Dewpoint Depression Visibility Wind Speed Wind Dir Waves Ship Positions

Bahia De Getares

Last reported at 2018-Aug-18 06:13 UTC. Time now 2018-Aug-19 15:17 UTC.
Position N 36°08' W 005°25'.

Length 23 m.

Type: Ship. MMSI: 225985074.

Date/timePositionNaut miles runAvg speedWind from/ knotsBaromVisibWave heightAir tempDewpointWater temp
2018-Aug-18 06:13N 36°08' W 005°25'1 2.0
2018-Aug-18 05:57N 36°08' W 005°25'1 0.1
2018-Aug-18 00:22N 36°08' W 005°25'2 6.5
2018-Aug-18 00:00N 36°06' W 005°25'1 1.2
2018-Aug-17 23:20N 36°07' W 005°25'  
2018-Aug-13 20:24N 36°09' W 005°26'3 0.2
2018-Aug-13 03:03N 36°10' W 005°23'0 0.1
2018-Aug-13 02:55N 36°10' W 005°23'0 0.0
2018-Aug-13 01:00N 36°10' W 005°23'0 0.1
2018-Aug-12 23:58N 36°10' W 005°23'3 0.1
2018-Aug-12 00:46N 36°09' W 005°26'6 9.7
2018-Aug-12 00:11N 36°04' W 005°24'2 9.2
2018-Aug-11 23:59N 36°02' W 005°23'4 9.1
2018-Aug-11 23:30N 35°58' W 005°21'3 6.7
2018-Aug-11 23:00N 35°55' W 005°20'0 0.1
2018-Aug-11 22:31N 35°55' W 005°20'0 0.1
2018-Aug-11 22:01N 35°55' W 005°20'0 0.1
2018-Aug-11 21:31N 35°55' W 005°20'0 0.1
2018-Aug-11 21:00N 35°55' W 005°21'0 0.1
2018-Aug-11 20:30N 35°55' W 005°21'0 0.7
2018-Aug-11 20:00N 35°55' W 005°21'4 8.3
2018-Aug-11 19:30N 35°59' W 005°22'10 0.4
2018-Aug-10 18:57N 36°09' W 005°26'3 7.1
2018-Aug-10 18:30N 36°06' W 005°25'3 0.2
2018-Aug-10 06:16N 36°09' W 005°26'  

Dump ship's entire track history